Barr, South Carolina
Current Conditions -  °F | °C
As of 8:17 AM on Saturday 25 Oct 2014 (Local Time) from KCAE Reporting Station
Haze Haze  
Wind Chill: 43°   Ceiling: Unl
Heat Index: 43°   Visibility: 2mi
Dew Point: 41°   Wind: 3mph
Humidity: 93%   Direction: 270°W
Pressure: 30.05"   Gusts: NA
Location:  33.9903°N, 81.2681°W
Report Text: KCAE 251217Z 27003KT 2SM BR FEW001 06/05 A3005 RMK AO2 T00610050
Loading
Personal Weather Stations






























Interactive Weather Map
Tropical Storm Tracking
New forecast layout! Learn more

10-Day Weather Forecast

Advertisements
Track Severe Weather on mobile